sensor_id;sensor_type;location;lat;lon;timestamp;P1;durP1;ratioP1;P2;durP2;ratioP2
4652;SDS011;9900;48.738;9.306;2023-04-07T00:00:17;4.70;;;4.10;;
4652;SDS011;9900;48.738;9.306;2023-04-07T00:02:46;5.50;;;4.60;;
4652;SDS011;9900;48.738;9.306;2023-04-07T00:05:16;5.80;;;4.83;;
4652;SDS011;9900;48.738;9.306;2023-04-07T00:07:45;5.13;;;4.60;;
4652;SDS011;9900;48.738;9.306;2023-04-07T00:10:23;5.97;;;4.50;;
4652;SDS011;9900;48.738;9.306;2023-04-07T00:12:52;4.67;;;4.20;;
4652;SDS011;9900;48.738;9.306;2023-04-07T00:15:20;7.20;;;5.20;;
4652;SDS011;9900;48.738;9.306;2023-04-07T00:17:49;9.53;;;5.27;;
4652;SDS011;9900;48.738;9.306;2023-04-07T00:20:19;5.13;;;4.37;;
4652;SDS011;9900;48.738;9.306;2023-04-07T00:22:48;6.57;;;5.27;;
4652;SDS011;9900;48.738;9.306;2023-04-07T00:25:16;7.17;;;5.27;;
4652;SDS011;9900;48.738;9.306;2023-04-07T00:27:45;7.30;;;5.30;;
4652;SDS011;9900;48.738;9.306;2023-04-07T00:30:14;11.83;;;5.80;;
4652;SDS011;9900;48.738;9.306;2023-04-07T00:32:43;6.63;;;5.00;;
4652;SDS011;9900;48.738;9.306;2023-04-07T00:35:12;7.30;;;5.00;;
4652;SDS011;9900;48.738;9.306;2023-04-07T00:37:42;5.23;;;4.73;;
4652;SDS011;9900;48.738;9.306;2023-04-07T00:40:11;6.13;;;4.77;;
4652;SDS011;9900;48.738;9.306;2023-04-07T00:42:39;7.20;;;4.93;;
4652;SDS011;9900;48.738;9.306;2023-04-07T00:45:08;6.00;;;5.00;;
4652;SDS011;9900;48.738;9.306;2023-04-07T00:47:38;8.63;;;5.37;;
4652;SDS011;9900;48.738;9.306;2023-04-07T00:50:08;5.37;;;4.60;;
4652;SDS011;9900;48.738;9.306;2023-04-07T00:52:37;5.23;;;4.73;;
4652;SDS011;9900;48.738;9.306;2023-04-07T00:55:08;6.80;;;5.43;;
4652;SDS011;9900;48.738;9.306;2023-04-07T00:57:37;8.33;;;5.80;;
4652;SDS011;9900;48.738;9.306;2023-04-07T01:00:06;7.00;;;5.07;;
4652;SDS011;9900;48.738;9.306;2023-04-07T01:02:36;5.40;;;4.90;;
4652;SDS011;9900;48.738;9.306;2023-04-07T01:05:12;7.60;;;5.00;;
4652;SDS011;9900;48.738;9.306;2023-04-07T01:07:47;6.47;;;5.00;;
4652;SDS011;9900;48.738;9.306;2023-04-07T01:10:25;8.60;;;6.10;;
4652;SDS011;9900;48.738;9.306;2023-04-07T01:12:56;6.27;;;5.10;;
4652;SDS011;9900;48.738;9.306;2023-04-07T01:15:29;10.17;;;5.17;;
4652;SDS011;9900;48.738;9.306;2023-04-07T01:17:59;6.60;;;5.10;;
4652;SDS011;9900;48.738;9.306;2023-04-07T01:20:34;7.20;;;5.50;;
4652;SDS011;9900;48.738;9.306;2023-04-07T01:23:05;5.30;;;4.17;;
4652;SDS011;9900;48.738;9.306;2023-04-07T01:25:46;6.23;;;5.00;;
4652;SDS011;9900;48.738;9.306;2023-04-07T01:31:13;7.40;;;5.20;;
4652;SDS011;9900;48.738;9.306;2023-04-07T01:33:43;6.00;;;5.40;;
4652;SDS011;9900;48.738;9.306;2023-04-07T01:36:12;6.60;;;4.80;;
4652;SDS011;9900;48.738;9.306;2023-04-07T01:38:43;8.47;;;5.80;;
4652;SDS011;9900;48.738;9.306;2023-04-07T01:41:11;6.80;;;5.60;;
4652;SDS011;9900;48.738;9.306;2023-04-07T01:43:42;9.20;;;5.93;;
4652;SDS011;9900;48.738;9.306;2023-04-07T01:46:14;7.57;;;5.30;;
4652;SDS011;9900;48.738;9.306;2023-04-07T01:48:42;6.50;;;5.47;;
4652;SDS011;9900;48.738;9.306;2023-04-07T01:51:11;7.00;;;5.93;;
4652;SDS011;9900;48.738;9.306;2023-04-07T01:53:44;13.40;;;5.87;;
4652;SDS011;9900;48.738;9.306;2023-04-07T01:56:13;7.00;;;5.40;;
4652;SDS011;9900;48.738;9.306;2023-04-07T01:58:41;7.63;;;5.90;;
4652;SDS011;9900;48.738;9.306;2023-04-07T02:01:10;7.10;;;5.43;;
4652;SDS011;9900;48.738;9.306;2023-04-07T02:03:42;7.37;;;5.93;;
4652;SDS011;9900;48.738;9.306;2023-04-07T02:06:13;8.90;;;5.97;;
4652;SDS011;9900;48.738;9.306;2023-04-07T02:08:46;10.87;;;6.20;;
4652;SDS011;9900;48.738;9.306;2023-04-07T02:11:17;11.13;;;6.00;;
4652;SDS011;9900;48.738;9.306;2023-04-07T02:13:48;8.70;;;5.90;;
4652;SDS011;9900;48.738;9.306;2023-04-07T02:16:19;7.87;;;6.23;;
4652;SDS011;9900;48.738;9.306;2023-04-07T02:18:49;8.83;;;5.60;;
4652;SDS011;9900;48.738;9.306;2023-04-07T02:21:19;7.53;;;5.90;;
4652;SDS011;9900;48.738;9.306;2023-04-07T02:23:49;9.57;;;6.07;;
4652;SDS011;9900;48.738;9.306;2023-04-07T02:26:17;6.60;;;5.23;;
4652;SDS011;9900;48.738;9.306;2023-04-07T02:28:46;11.77;;;6.10;;
4652;SDS011;9900;48.738;9.306;2023-04-07T02:31:15;8.70;;;5.23;;
4652;SDS011;9900;48.738;9.306;2023-04-07T02:33:44;8.57;;;6.03;;
4652;SDS011;9900;48.738;9.306;2023-04-07T02:36:13;9.17;;;5.80;;
4652;SDS011;9900;48.738;9.306;2023-04-07T02:38:42;7.47;;;5.13;;
4652;SDS011;9900;48.738;9.306;2023-04-07T02:41:11;6.80;;;5.60;;
4652;SDS011;9900;48.738;9.306;2023-04-07T02:43:39;7.30;;;5.73;;
4652;SDS011;9900;48.738;9.306;2023-04-07T02:46:08;7.80;;;6.10;;
4652;SDS011;9900;48.738;9.306;2023-04-07T02:48:36;6.77;;;5.93;;
4652;SDS011;9900;48.738;9.306;2023-04-07T02:51:05;7.40;;;5.30;;
4652;SDS011;9900;48.738;9.306;2023-04-07T02:53:35;8.63;;;5.80;;
4652;SDS011;9900;48.738;9.306;2023-04-07T02:56:04;8.20;;;6.23;;
4652;SDS011;9900;48.738;9.306;2023-04-07T02:58:33;7.00;;;5.33;;
4652;SDS011;9900;48.738;9.306;2023-04-07T03:01:01;6.90;;;5.70;;
4652;SDS011;9900;48.738;9.306;2023-04-07T03:03:31;10.60;;;6.83;;
4652;SDS011;9900;48.738;9.306;2023-04-07T03:06:00;7.20;;;5.50;;
4652;SDS011;9900;48.738;9.306;2023-04-07T03:08:28;8.80;;;6.50;;
4652;SDS011;9900;48.738;9.306;2023-04-07T03:10:58;6.60;;;5.53;;
4652;SDS011;9900;48.738;9.306;2023-04-07T03:13:27;9.53;;;6.63;;
4652;SDS011;9900;48.738;9.306;2023-04-07T03:15:56;9.00;;;6.60;;
4652;SDS011;9900;48.738;9.306;2023-04-07T03:18:25;7.90;;;6.73;;
4652;SDS011;9900;48.738;9.306;2023-04-07T03:20:54;7.00;;;5.53;;
4652;SDS011;9900;48.738;9.306;2023-04-07T03:23:22;7.20;;;5.97;;
4652;SDS011;9900;48.738;9.306;2023-04-07T03:25:51;8.00;;;6.20;;
4652;SDS011;9900;48.738;9.306;2023-04-07T03:28:21;9.97;;;6.50;;
4652;SDS011;9900;48.738;9.306;2023-04-07T03:30:50;7.73;;;6.60;;
4652;SDS011;9900;48.738;9.306;2023-04-07T03:33:18;8.13;;;6.60;;
4652;SDS011;9900;48.738;9.306;2023-04-07T03:35:47;10.00;;;6.47;;
4652;SDS011;9900;48.738;9.306;2023-04-07T03:38:16;7.90;;;6.23;;
4652;SDS011;9900;48.738;9.306;2023-04-07T03:40:44;9.53;;;6.20;;
4652;SDS011;9900;48.738;9.306;2023-04-07T03:43:13;11.07;;;7.00;;
4652;SDS011;9900;48.738;9.306;2023-04-07T03:45:43;7.87;;;6.20;;
4652;SDS011;9900;48.738;9.306;2023-04-07T03:48:12;11.70;;;7.43;;
4652;SDS011;9900;48.738;9.306;2023-04-07T03:50:41;10.63;;;6.73;;
4652;SDS011;9900;48.738;9.306;2023-04-07T03:53:09;10.60;;;7.13;;
4652;SDS011;9900;48.738;9.306;2023-04-07T03:55:40;15.30;;;7.33;;
4652;SDS011;9900;48.738;9.306;2023-04-07T03:58:09;10.10;;;6.97;;
4652;SDS011;9900;48.738;9.306;2023-04-07T04:00:38;9.53;;;6.40;;
4652;SDS011;9900;48.738;9.306;2023-04-07T04:03:08;8.20;;;6.23;;
4652;SDS011;9900;48.738;9.306;2023-04-07T04:05:37;11.60;;;7.17;;
4652;SDS011;9900;48.738;9.306;2023-04-07T04:08:07;8.73;;;6.63;;
4652;SDS011;9900;48.738;9.306;2023-04-07T04:10:35;9.57;;;7.20;;
4652;SDS011;9900;48.738;9.306;2023-04-07T04:13:04;9.67;;;6.60;;
4652;SDS011;9900;48.738;9.306;2023-04-07T04:15:34;10.17;;;7.90;;
4652;SDS011;9900;48.738;9.306;2023-04-07T04:18:02;8.77;;;6.83;;
4652;SDS011;9900;48.738;9.306;2023-04-07T04:20:32;10.80;;;6.90;;
4652;SDS011;9900;48.738;9.306;2023-04-07T04:23:01;8.30;;;6.87;;
4652;SDS011;9900;48.738;9.306;2023-04-07T04:25:30;7.93;;;6.60;;
4652;SDS011;9900;48.738;9.306;2023-04-07T04:27:58;11.70;;;6.90;;
4652;SDS011;9900;48.738;9.306;2023-04-07T04:30:27;8.90;;;7.30;;
4652;SDS011;9900;48.738;9.306;2023-04-07T04:32:56;8.43;;;7.00;;
4652;SDS011;9900;48.738;9.306;2023-04-07T04:35:24;10.87;;;7.30;;
4652;SDS011;9900;48.738;9.306;2023-04-07T04:37:55;8.90;;;7.27;;
4652;SDS011;9900;48.738;9.306;2023-04-07T04:40:23;10.37;;;6.63;;
4652;SDS011;9900;48.738;9.306;2023-04-07T04:42:52;10.70;;;8.10;;
4652;SDS011;9900;48.738;9.306;2023-04-07T04:45:21;8.93;;;7.30;;
4652;SDS011;9900;48.738;9.306;2023-04-07T04:47:50;9.90;;;8.00;;
4652;SDS011;9900;48.738;9.306;2023-04-07T04:50:18;10.93;;;6.87;;
4652;SDS011;9900;48.738;9.306;2023-04-07T04:52:47;10.80;;;8.20;;
4652;SDS011;9900;48.738;9.306;2023-04-07T04:55:17;9.47;;;7.63;;
4652;SDS011;9900;48.738;9.306;2023-04-07T04:57:46;9.53;;;7.30;;
4652;SDS011;9900;48.738;9.306;2023-04-07T05:00:15;12.00;;;7.60;;
4652;SDS011;9900;48.738;9.306;2023-04-07T05:02:44;9.47;;;7.83;;
4652;SDS011;9900;48.738;9.306;2023-04-07T05:05:13;9.00;;;7.40;;
4652;SDS011;9900;48.738;9.306;2023-04-07T05:07:42;11.53;;;7.80;;
4652;SDS011;9900;48.738;9.306;2023-04-07T05:10:10;12.00;;;8.00;;
4652;SDS011;9900;48.738;9.306;2023-04-07T05:12:40;10.83;;;8.20;;
4652;SDS011;9900;48.738;9.306;2023-04-07T05:15:09;13.50;;;8.43;;
4652;SDS011;9900;48.738;9.306;2023-04-07T05:17:38;10.37;;;8.07;;
4652;SDS011;9900;48.738;9.306;2023-04-07T05:20:08;10.30;;;7.97;;
4652;SDS011;9900;48.738;9.306;2023-04-07T05:22:37;11.03;;;8.50;;
4652;SDS011;9900;48.738;9.306;2023-04-07T05:25:06;12.23;;;7.70;;
4652;SDS011;9900;48.738;9.306;2023-04-07T05:27:36;11.73;;;7.50;;
4652;SDS011;9900;48.738;9.306;2023-04-07T05:30:06;12.60;;;8.73;;
4652;SDS011;9900;48.738;9.306;2023-04-07T05:32:36;12.77;;;8.23;;
4652;SDS011;9900;48.738;9.306;2023-04-07T05:35:05;13.33;;;8.40;;
4652;SDS011;9900;48.738;9.306;2023-04-07T05:37:34;13.40;;;7.80;;
4652;SDS011;9900;48.738;9.306;2023-04-07T05:40:03;14.60;;;8.57;;
4652;SDS011;9900;48.738;9.306;2023-04-07T05:42:32;11.50;;;9.23;;
4652;SDS011;9900;48.738;9.306;2023-04-07T05:45:00;13.10;;;8.70;;
4652;SDS011;9900;48.738;9.306;2023-04-07T05:47:31;13.50;;;8.50;;
4652;SDS011;9900;48.738;9.306;2023-04-07T05:49:59;10.90;;;7.87;;
4652;SDS011;9900;48.738;9.306;2023-04-07T05:52:28;11.77;;;8.40;;
4652;SDS011;9900;48.738;9.306;2023-04-07T05:54:57;12.27;;;8.30;;
4652;SDS011;9900;48.738;9.306;2023-04-07T05:57:26;13.87;;;8.80;;
4652;SDS011;9900;48.738;9.306;2023-04-07T05:59:55;12.87;;;8.30;;
4652;SDS011;9900;48.738;9.306;2023-04-07T06:02:24;10.37;;;7.80;;
4652;SDS011;9900;48.738;9.306;2023-04-07T06:04:54;9.97;;;7.27;;
4652;SDS011;9900;48.738;9.306;2023-04-07T06:07:23;11.50;;;8.10;;
4652;SDS011;9900;48.738;9.306;2023-04-07T06:09:52;14.63;;;8.23;;
4652;SDS011;9900;48.738;9.306;2023-04-07T06:12:20;15.40;;;9.37;;
4652;SDS011;9900;48.738;9.306;2023-04-07T06:14:51;13.93;;;8.73;;
4652;SDS011;9900;48.738;9.306;2023-04-07T06:17:20;11.27;;;8.33;;
4652;SDS011;9900;48.738;9.306;2023-04-07T06:19:49;13.20;;;8.57;;
4652;SDS011;9900;48.738;9.306;2023-04-07T06:22:19;13.03;;;8.97;;
4652;SDS011;9900;48.738;9.306;2023-04-07T06:24:48;11.40;;;9.00;;
4652;SDS011;9900;48.738;9.306;2023-04-07T06:27:16;12.07;;;8.47;;
4652;SDS011;9900;48.738;9.306;2023-04-07T06:29:45;10.67;;;8.40;;
4652;SDS011;9900;48.738;9.306;2023-04-07T06:32:13;10.77;;;8.50;;
4652;SDS011;9900;48.738;9.306;2023-04-07T06:34:43;14.07;;;9.60;;
4652;SDS011;9900;48.738;9.306;2023-04-07T06:37:12;14.47;;;9.20;;
4652;SDS011;9900;48.738;9.306;2023-04-07T06:39:43;10.63;;;8.27;;
4652;SDS011;9900;48.738;9.306;2023-04-07T06:42:12;15.80;;;9.27;;
4652;SDS011;9900;48.738;9.306;2023-04-07T06:44:41;11.90;;;8.90;;
4652;SDS011;9900;48.738;9.306;2023-04-07T06:47:09;12.00;;;8.90;;
4652;SDS011;9900;48.738;9.306;2023-04-07T06:49:38;10.20;;;8.43;;
4652;SDS011;9900;48.738;9.306;2023-04-07T06:52:07;12.10;;;7.90;;
4652;SDS011;9900;48.738;9.306;2023-04-07T06:54:36;11.80;;;9.00;;
4652;SDS011;9900;48.738;9.306;2023-04-07T06:57:06;13.87;;;8.97;;
4652;SDS011;9900;48.738;9.306;2023-04-07T06:59:38;12.90;;;9.00;;
4652;SDS011;9900;48.738;9.306;2023-04-07T07:02:06;14.20;;;9.40;;
4652;SDS011;9900;48.738;9.306;2023-04-07T07:04:35;11.20;;;8.70;;
4652;SDS011;9900;48.738;9.306;2023-04-07T07:07:05;12.77;;;8.33;;
4652;SDS011;9900;48.738;9.306;2023-04-07T07:09:33;10.73;;;8.30;;
4652;SDS011;9900;48.738;9.306;2023-04-07T07:12:02;13.03;;;9.77;;
4652;SDS011;9900;48.738;9.306;2023-04-07T07:14:33;12.87;;;9.03;;
4652;SDS011;9900;48.738;9.306;2023-04-07T07:17:02;15.47;;;8.83;;
4652;SDS011;9900;48.738;9.306;2023-04-07T07:19:31;15.33;;;9.63;;
4652;SDS011;9900;48.738;9.306;2023-04-07T07:21:59;11.37;;;9.17;;
4652;SDS011;9900;48.738;9.306;2023-04-07T07:24:30;12.70;;;8.80;;
4652;SDS011;9900;48.738;9.306;2023-04-07T07:27:00;15.67;;;8.90;;
4652;SDS011;9900;48.738;9.306;2023-04-07T07:29:29;11.00;;;8.67;;
4652;SDS011;9900;48.738;9.306;2023-04-07T07:31:59;12.80;;;8.87;;
4652;SDS011;9900;48.738;9.306;2023-04-07T07:34:28;11.67;;;9.10;;
4652;SDS011;9900;48.738;9.306;2023-04-07T07:36:57;11.93;;;8.50;;
4652;SDS011;9900;48.738;9.306;2023-04-07T07:39:26;10.90;;;8.70;;
4652;SDS011;9900;48.738;9.306;2023-04-07T07:41:55;14.87;;;9.47;;
4652;SDS011;9900;48.738;9.306;2023-04-07T07:44:24;12.80;;;9.20;;
4652;SDS011;9900;48.738;9.306;2023-04-07T07:46:53;12.40;;;9.03;;
4652;SDS011;9900;48.738;9.306;2023-04-07T07:49:23;12.50;;;9.07;;
4652;SDS011;9900;48.738;9.306;2023-04-07T07:51:51;10.70;;;9.17;;
4652;SDS011;9900;48.738;9.306;2023-04-07T07:54:20;11.27;;;8.97;;
4652;SDS011;9900;48.738;9.306;2023-04-07T07:56:49;14.30;;;8.83;;
4652;SDS011;9900;48.738;9.306;2023-04-07T07:59:19;13.67;;;8.50;;
4652;SDS011;9900;48.738;9.306;2023-04-07T08:01:47;13.60;;;7.33;;
4652;SDS011;9900;48.738;9.306;2023-04-07T08:04:16;8.83;;;7.90;;
4652;SDS011;9900;48.738;9.306;2023-04-07T08:06:46;10.27;;;7.43;;
4652;SDS011;9900;48.738;9.306;2023-04-07T08:09:15;9.90;;;7.80;;
4652;SDS011;9900;48.738;9.306;2023-04-07T08:11:44;9.63;;;7.53;;
4652;SDS011;9900;48.738;9.306;2023-04-07T08:14:14;8.40;;;5.80;;
4652;SDS011;9900;48.738;9.306;2023-04-07T08:16:43;11.97;;;7.30;;
4652;SDS011;9900;48.738;9.306;2023-04-07T08:19:12;8.10;;;6.60;;
4652;SDS011;9900;48.738;9.306;2023-04-07T08:21:41;9.20;;;7.43;;
4652;SDS011;9900;48.738;9.306;2023-04-07T08:24:11;9.17;;;6.90;;
4652;SDS011;9900;48.738;9.306;2023-04-07T08:26:40;9.40;;;7.17;;
4652;SDS011;9900;48.738;9.306;2023-04-07T08:29:08;10.60;;;6.50;;
4652;SDS011;9900;48.738;9.306;2023-04-07T08:31:37;8.60;;;6.17;;
4652;SDS011;9900;48.738;9.306;2023-04-07T08:34:06;7.50;;;6.20;;
4652;SDS011;9900;48.738;9.306;2023-04-07T08:36:35;6.80;;;5.07;;
4652;SDS011;9900;48.738;9.306;2023-04-07T08:39:04;8.17;;;4.20;;
4652;SDS011;9900;48.738;9.306;2023-04-07T08:41:35;4.63;;;4.20;;
4652;SDS011;9900;48.738;9.306;2023-04-07T08:44:04;4.90;;;4.30;;
4652;SDS011;9900;48.738;9.306;2023-04-07T08:46:35;5.47;;;4.97;;
4652;SDS011;9900;48.738;9.306;2023-04-07T08:49:07;7.87;;;3.77;;
4652;SDS011;9900;48.738;9.306;2023-04-07T08:51:36;10.50;;;3.60;;
4652;SDS011;9900;48.738;9.306;2023-04-07T08:54:09;3.40;;;3.10;;
4652;SDS011;9900;48.738;9.306;2023-04-07T08:56:40;8.03;;;4.60;;
4652;SDS011;9900;48.738;9.306;2023-04-07T08:59:11;3.73;;;2.97;;
4652;SDS011;9900;48.738;9.306;2023-04-07T09:01:40;6.80;;;4.03;;
4652;SDS011;9900;48.738;9.306;2023-04-07T09:04:09;4.57;;;3.40;;
4652;SDS011;9900;48.738;9.306;2023-04-07T09:06:38;5.87;;;3.50;;
4652;SDS011;9900;48.738;9.306;2023-04-07T09:09:07;4.03;;;3.13;;
4652;SDS011;9900;48.738;9.306;2023-04-07T09:11:37;5.20;;;3.37;;
4652;SDS011;9900;48.738;9.306;2023-04-07T09:14:08;5.20;;;3.50;;
4652;SDS011;9900;48.738;9.306;2023-04-07T09:16:37;4.53;;;3.47;;
4652;SDS011;9900;48.738;9.306;2023-04-07T09:19:06;4.23;;;2.83;;
4652;SDS011;9900;48.738;9.306;2023-04-07T09:21:45;4.40;;;3.40;;
4652;SDS011;9900;48.738;9.306;2023-04-07T09:24:22;5.10;;;2.77;;
4652;SDS011;9900;48.738;9.306;2023-04-07T09:29:43;4.10;;;2.87;;
4652;SDS011;9900;48.738;9.306;2023-04-07T09:32:15;7.07;;;2.70;;
4652;SDS011;9900;48.738;9.306;2023-04-07T09:35:02;6.07;;;3.37;;
4652;SDS011;9900;48.738;9.306;2023-04-07T09:37:31;7.07;;;3.20;;
4652;SDS011;9900;48.738;9.306;2023-04-07T09:40:00;5.23;;;2.53;;
4652;SDS011;9900;48.738;9.306;2023-04-07T09:42:29;9.60;;;2.53;;
4652;SDS011;9900;48.738;9.306;2023-04-07T09:45:00;3.40;;;2.33;;
4652;SDS011;9900;48.738;9.306;2023-04-07T09:47:30;10.37;;;3.43;;
4652;SDS011;9900;48.738;9.306;2023-04-07T09:50:00;3.40;;;2.63;;
4652;SDS011;9900;48.738;9.306;2023-04-07T09:52:49;4.00;;;3.00;;
4652;SDS011;9900;48.738;9.306;2023-04-07T09:55:19;4.33;;;3.03;;
4652;SDS011;9900;48.738;9.306;2023-04-07T09:57:49;6.10;;;3.07;;
4652;SDS011;9900;48.738;9.306;2023-04-07T10:00:19;2.87;;;2.57;;
4652;SDS011;9900;48.738;9.306;2023-04-07T10:02:48;4.80;;;3.00;;
4652;SDS011;9900;48.738;9.306;2023-04-07T10:05:19;5.40;;;2.93;;
4652;SDS011;9900;48.738;9.306;2023-04-07T10:07:50;2.53;;;2.27;;
4652;SDS011;9900;48.738;9.306;2023-04-07T10:10:19;9.30;;;3.63;;
4652;SDS011;9900;48.738;9.306;2023-04-07T10:12:48;4.13;;;2.70;;
4652;SDS011;9900;48.738;9.306;2023-04-07T10:15:17;6.20;;;2.93;;
4652;SDS011;9900;48.738;9.306;2023-04-07T10:17:47;3.93;;;2.63;;
4652;SDS011;9900;48.738;9.306;2023-04-07T10:20:17;5.60;;;2.87;;
4652;SDS011;9900;48.738;9.306;2023-04-07T10:22:47;9.27;;;4.27;;
4652;SDS011;9900;48.738;9.306;2023-04-07T10:25:18;7.37;;;3.77;;
4652;SDS011;9900;48.738;9.306;2023-04-07T10:27:49;8.37;;;4.07;;
4652;SDS011;9900;48.738;9.306;2023-04-07T10:30:20;7.40;;;4.10;;
4652;SDS011;9900;48.738;9.306;2023-04-07T10:32:52;7.90;;;4.50;;
4652;SDS011;9900;48.738;9.306;2023-04-07T10:35:22;5.03;;;3.60;;
4652;SDS011;9900;48.738;9.306;2023-04-07T10:38:08;8.37;;;4.73;;
4652;SDS011;9900;48.738;9.306;2023-04-07T10:40:40;5.63;;;3.93;;
4652;SDS011;9900;48.738;9.306;2023-04-07T10:43:09;6.10;;;3.70;;
4652;SDS011;9900;48.738;9.306;2023-04-07T10:45:52;7.07;;;4.13;;
4652;SDS011;9900;48.738;9.306;2023-04-07T10:48:24;6.47;;;3.40;;
4652;SDS011;9900;48.738;9.306;2023-04-07T10:51:10;8.20;;;4.20;;
4652;SDS011;9900;48.738;9.306;2023-04-07T10:57:08;4.77;;;4.00;;
4652;SDS011;9900;48.738;9.306;2023-04-07T10:59:41;6.40;;;4.00;;
4652;SDS011;9900;48.738;9.306;2023-04-07T11:02:39;7.43;;;4.10;;
4652;SDS011;9900;48.738;9.306;2023-04-07T11:05:19;4.90;;;4.47;;
4652;SDS011;9900;48.738;9.306;2023-04-07T11:07:50;5.17;;;3.43;;
4652;SDS011;9900;48.738;9.306;2023-04-07T11:10:21;7.07;;;3.53;;
4652;SDS011;9900;48.738;9.306;2023-04-07T11:12:56;6.57;;;3.40;;
4652;SDS011;9900;48.738;9.306;2023-04-07T11:15:26;4.43;;;3.47;;
4652;SDS011;9900;48.738;9.306;2023-04-07T11:18:08;5.13;;;3.00;;
4652;SDS011;9900;48.738;9.306;2023-04-07T11:20:49;4.50;;;3.30;;
4652;SDS011;9900;48.738;9.306;2023-04-07T11:23:20;4.97;;;2.60;;
4652;SDS011;9900;48.738;9.306;2023-04-07T11:25:58;7.50;;;4.03;;
4652;SDS011;9900;48.738;9.306;2023-04-07T11:28:28;4.40;;;3.60;;
4652;SDS011;9900;48.738;9.306;2023-04-07T11:30:57;5.03;;;3.43;;
4652;SDS011;9900;48.738;9.306;2023-04-07T11:33:27;4.67;;;3.30;;
4652;SDS011;9900;48.738;9.306;2023-04-07T11:35:59;7.27;;;4.00;;
4652;SDS011;9900;48.738;9.306;2023-04-07T11:38:34;5.23;;;3.40;;
4652;SDS011;9900;48.738;9.306;2023-04-07T11:41:11;5.57;;;4.43;;
4652;SDS011;9900;48.738;9.306;2023-04-07T11:43:40;3.37;;;3.07;;
4652;SDS011;9900;48.738;9.306;2023-04-07T11:46:10;7.07;;;3.60;;
4652;SDS011;9900;48.738;9.306;2023-04-07T11:48:40;5.70;;;2.77;;
4652;SDS011;9900;48.738;9.306;2023-04-07T11:51:17;4.70;;;3.00;;
4652;SDS011;9900;48.738;9.306;2023-04-07T11:53:47;4.67;;;3.00;;
4652;SDS011;9900;48.738;9.306;2023-04-07T11:56:21;4.23;;;2.80;;
4652;SDS011;9900;48.738;9.306;2023-04-07T11:58:50;6.20;;;3.00;;
4652;SDS011;9900;48.738;9.306;2023-04-07T12:01:21;8.80;;;3.07;;
4652;SDS011;9900;48.738;9.306;2023-04-07T12:03:54;4.80;;;2.87;;
4652;SDS011;9900;48.738;9.306;2023-04-07T12:06:27;5.90;;;2.83;;
4652;SDS011;9900;48.738;9.306;2023-04-07T12:08:56;4.83;;;3.10;;
4652;SDS011;9900;48.738;9.306;2023-04-07T12:11:25;6.13;;;2.80;;
4652;SDS011;9900;48.738;9.306;2023-04-07T12:13:53;5.73;;;2.83;;
4652;SDS011;9900;48.738;9.306;2023-04-07T12:16:23;6.20;;;3.50;;
4652;SDS011;9900;48.738;9.306;2023-04-07T12:18:52;7.13;;;3.40;;
4652;SDS011;9900;48.738;9.306;2023-04-07T12:21:21;5.43;;;2.43;;
4652;SDS011;9900;48.738;9.306;2023-04-07T12:23:51;8.77;;;3.60;;
4652;SDS011;9900;48.738;9.306;2023-04-07T12:26:20;3.40;;;3.10;;
4652;SDS011;9900;48.738;9.306;2023-04-07T12:28:49;6.67;;;3.00;;
4652;SDS011;9900;48.738;9.306;2023-04-07T12:31:18;3.70;;;3.03;;
4652;SDS011;9900;48.738;9.306;2023-04-07T12:33:47;4.73;;;3.60;;
4652;SDS011;9900;48.738;9.306;2023-04-07T12:36:16;9.57;;;4.53;;
4652;SDS011;9900;48.738;9.306;2023-04-07T12:38:44;14.03;;;4.47;;
4652;SDS011;9900;48.738;9.306;2023-04-07T12:41:14;10.50;;;5.00;;
4652;SDS011;9900;48.738;9.306;2023-04-07T12:43:43;6.57;;;4.60;;
4652;SDS011;9900;48.738;9.306;2023-04-07T12:46:13;7.87;;;5.70;;
4652;SDS011;9900;48.738;9.306;2023-04-07T12:48:42;6.20;;;5.13;;
4652;SDS011;9900;48.738;9.306;2023-04-07T12:51:12;8.40;;;4.70;;
4652;SDS011;9900;48.738;9.306;2023-04-07T12:53:40;8.10;;;4.77;;
4652;SDS011;9900;48.738;9.306;2023-04-07T12:56:09;9.67;;;5.30;;
4652;SDS011;9900;48.738;9.306;2023-04-07T12:58:40;10.80;;;4.43;;
4652;SDS011;9900;48.738;9.306;2023-04-07T13:01:09;9.10;;;4.93;;
4652;SDS011;9900;48.738;9.306;2023-04-07T13:03:38;10.67;;;4.80;;
4652;SDS011;9900;48.738;9.306;2023-04-07T13:06:07;7.30;;;4.80;;
4652;SDS011;9900;48.738;9.306;2023-04-07T13:08:37;8.47;;;4.83;;
4652;SDS011;9900;48.738;9.306;2023-04-07T13:11:06;7.37;;;4.57;;
4652;SDS011;9900;48.738;9.306;2023-04-07T13:13:34;6.20;;;3.60;;
4652;SDS011;9900;48.738;9.306;2023-04-07T13:16:04;5.83;;;3.40;;
4652;SDS011;9900;48.738;9.306;2023-04-07T13:18:33;7.00;;;2.90;;
4652;SDS011;9900;48.738;9.306;2023-04-07T13:21:02;6.43;;;2.80;;
4652;SDS011;9900;48.738;9.306;2023-04-07T13:23:51;4.40;;;3.10;;
4652;SDS011;9900;48.738;9.306;2023-04-07T13:26:20;5.37;;;2.93;;
4652;SDS011;9900;48.738;9.306;2023-04-07T13:28:49;5.17;;;2.53;;
4652;SDS011;9900;48.738;9.306;2023-04-07T13:31:19;5.17;;;3.63;;
4652;SDS011;9900;48.738;9.306;2023-04-07T13:33:49;8.73;;;3.60;;
4652;SDS011;9900;48.738;9.306;2023-04-07T13:36:18;5.13;;;1.90;;
4652;SDS011;9900;48.738;9.306;2023-04-07T13:38:49;3.57;;;2.23;;
4652;SDS011;9900;48.738;9.306;2023-04-07T13:41:18;3.40;;;2.00;;
4652;SDS011;9900;48.738;9.306;2023-04-07T13:43:47;6.13;;;2.40;;
4652;SDS011;9900;48.738;9.306;2023-04-07T13:46:17;4.30;;;2.50;;
4652;SDS011;9900;48.738;9.306;2023-04-07T13:48:50;3.60;;;2.27;;
4652;SDS011;9900;48.738;9.306;2023-04-07T13:51:18;3.70;;;2.30;;
4652;SDS011;9900;48.738;9.306;2023-04-07T13:53:47;3.93;;;2.80;;
4652;SDS011;9900;48.738;9.306;2023-04-07T13:56:16;4.60;;;2.53;;
4652;SDS011;9900;48.738;9.306;2023-04-07T13:58:45;4.13;;;2.67;;
4652;SDS011;9900;48.738;9.306;2023-04-07T14:01:14;4.27;;;2.43;;
4652;SDS011;9900;48.738;9.306;2023-04-07T14:03:42;3.73;;;2.50;;
4652;SDS011;9900;48.738;9.306;2023-04-07T14:06:13;2.63;;;2.20;;
4652;SDS011;9900;48.738;9.306;2023-04-07T14:08:41;4.87;;;2.93;;
4652;SDS011;9900;48.738;9.306;2023-04-07T14:11:10;3.90;;;2.90;;
4652;SDS011;9900;48.738;9.306;2023-04-07T14:13:38;5.30;;;3.30;;
4652;SDS011;9900;48.738;9.306;2023-04-07T14:16:07;5.37;;;2.77;;
4652;SDS011;9900;48.738;9.306;2023-04-07T14:18:36;4.07;;;2.60;;
4652;SDS011;9900;48.738;9.306;2023-04-07T14:21:04;4.97;;;2.60;;
4652;SDS011;9900;48.738;9.306;2023-04-07T14:23:35;5.43;;;2.53;;
4652;SDS011;9900;48.738;9.306;2023-04-07T14:26:04;2.57;;;2.37;;
4652;SDS011;9900;48.738;9.306;2023-04-07T14:28:33;4.63;;;2.47;;
4652;SDS011;9900;48.738;9.306;2023-04-07T14:31:01;2.57;;;2.37;;
4652;SDS011;9900;48.738;9.306;2023-04-07T14:33:30;6.00;;;2.47;;
4652;SDS011;9900;48.738;9.306;2023-04-07T14:35:59;3.13;;;2.40;;
4652;SDS011;9900;48.738;9.306;2023-04-07T14:38:27;2.10;;;1.90;;
4652;SDS011;9900;48.738;9.306;2023-04-07T14:40:57;5.63;;;2.00;;
4652;SDS011;9900;48.738;9.306;2023-04-07T14:43:36;3.43;;;2.10;;
4652;SDS011;9900;48.738;9.306;2023-04-07T14:46:05;4.23;;;2.50;;
4652;SDS011;9900;48.738;9.306;2023-04-07T14:48:34;4.53;;;1.97;;
4652;SDS011;9900;48.738;9.306;2023-04-07T14:51:08;5.00;;;2.00;;
4652;SDS011;9900;48.738;9.306;2023-04-07T14:53:38;3.50;;;2.47;;
4652;SDS011;9900;48.738;9.306;2023-04-07T14:56:09;3.00;;;2.70;;
4652;SDS011;9900;48.738;9.306;2023-04-07T14:58:38;5.17;;;2.60;;
4652;SDS011;9900;48.738;9.306;2023-04-07T15:01:07;3.90;;;2.50;;
4652;SDS011;9900;48.738;9.306;2023-04-07T15:03:35;6.50;;;3.80;;
4652;SDS011;9900;48.738;9.306;2023-04-07T15:06:05;5.50;;;3.17;;
4652;SDS011;9900;48.738;9.306;2023-04-07T15:08:35;9.00;;;3.80;;
4652;SDS011;9900;48.738;9.306;2023-04-07T15:11:03;3.50;;;3.20;;
4652;SDS011;9900;48.738;9.306;2023-04-07T15:13:34;7.73;;;3.27;;
4652;SDS011;9900;48.738;9.306;2023-04-07T15:16:06;5.70;;;3.33;;
4652;SDS011;9900;48.738;9.306;2023-04-07T15:18:36;5.97;;;2.63;;
4652;SDS011;9900;48.738;9.306;2023-04-07T15:21:06;2.93;;;2.57;;
4652;SDS011;9900;48.738;9.306;2023-04-07T15:23:35;7.30;;;3.10;;
4652;SDS011;9900;48.738;9.306;2023-04-07T15:26:04;6.00;;;3.37;;
4652;SDS011;9900;48.738;9.306;2023-04-07T15:28:34;5.17;;;3.57;;
4652;SDS011;9900;48.738;9.306;2023-04-07T15:31:03;3.33;;;3.03;;
4652;SDS011;9900;48.738;9.306;2023-04-07T15:33:35;3.70;;;3.03;;
4652;SDS011;9900;48.738;9.306;2023-04-07T15:36:04;3.00;;;2.70;;
4652;SDS011;9900;48.738;9.306;2023-04-07T15:38:34;4.60;;;3.17;;